createdAt,value
2018-07-03T00:00:01.795Z,34.89
2018-07-03T00:01:06.673Z,34.71
2018-07-03T00:02:01.776Z,34.71
2018-07-03T00:03:01.785Z,34.61
2018-07-03T00:04:01.750Z,34.91
2018-07-03T00:05:01.778Z,34.61
2018-07-03T00:06:01.735Z,34.71
2018-07-03T00:07:01.722Z,34.71
2018-07-03T00:08:01.713Z,34.91
2018-07-03T00:09:01.715Z,34.91
2018-07-03T00:10:01.690Z,34.91
2018-07-03T00:11:01.674Z,34.91
2018-07-03T00:12:01.711Z,35.40
2018-07-03T00:13:01.655Z,34.91
2018-07-03T00:14:01.666Z,34.91
2018-07-03T00:15:01.634Z,35.00
2018-07-03T00:16:01.628Z,34.71
2018-07-03T00:17:01.616Z,34.71
2018-07-03T00:18:01.600Z,34.81
2018-07-03T00:19:01.631Z,34.61
2018-07-03T00:20:01.604Z,35.11
2018-07-03T00:21:01.569Z,35.11
2018-07-03T00:22:01.561Z,34.81
2018-07-03T00:23:01.550Z,34.71
2018-07-03T00:24:01.540Z,35.30
2018-07-03T00:25:01.528Z,34.71
2018-07-03T00:26:01.574Z,35.11
2018-07-03T00:27:01.504Z,35.21
2018-07-03T00:28:01.493Z,35.11
2018-07-03T00:29:01.488Z,35.40
2018-07-03T00:30:01.495Z,35.40
2018-07-03T00:31:01.466Z,35.40
2018-07-03T00:32:01.476Z,35.40
2018-07-03T00:33:01.482Z,35.21
2018-07-03T00:34:01.433Z,35.40
2018-07-03T00:35:01.421Z,35.89
2018-07-03T00:36:01.411Z,35.30
2018-07-03T00:37:01.400Z,35.40
2018-07-03T00:38:01.421Z,35.99
2018-07-03T00:39:01.379Z,35.60
2018-07-03T00:40:01.411Z,35.99
2018-07-03T00:41:01.354Z,36.10
2018-07-03T00:42:01.347Z,35.89
2018-07-03T00:43:01.331Z,35.99
2018-07-03T00:44:01.342Z,35.30
2018-07-03T00:45:01.319Z,35.70
2018-07-03T00:46:01.302Z,35.70
2018-07-03T00:47:01.326Z,35.72
2018-07-03T00:48:01.287Z,35.99
2018-07-03T00:49:01.271Z,35.91
2018-07-03T00:50:01.279Z,35.89
2018-07-03T00:51:01.248Z,35.89
2018-07-03T00:52:01.235Z,35.70
2018-07-03T00:53:01.223Z,35.70
2018-07-03T00:54:01.260Z,35.91
2018-07-03T00:55:01.207Z,35.80
2018-07-03T00:56:01.235Z,35.61
2018-07-03T00:57:01.183Z,35.61
2018-07-03T00:58:01.171Z,35.61
2018-07-03T00:59:01.161Z,35.91
2018-07-03T01:00:01.159Z,35.61
2018-07-03T01:01:01.178Z,35.91
2018-07-03T01:02:01.179Z,35.91
2018-07-03T01:03:06.005Z,36.11
2018-07-03T01:04:01.119Z,35.61
2018-07-03T01:05:01.097Z,36.11
2018-07-03T01:06:01.096Z,35.82
2018-07-03T01:07:01.073Z,36.01
2018-07-03T01:08:01.224Z,35.82
2018-07-03T01:09:01.053Z,35.91
2018-07-03T01:10:01.042Z,35.91
2018-07-03T01:11:01.032Z,35.91
2018-07-03T01:12:01.027Z,36.11
2018-07-03T01:13:01.037Z,36.21
2018-07-03T01:14:00.999Z,36.21
2018-07-03T01:15:01.023Z,35.61
2018-07-03T01:16:00.977Z,36.01
2018-07-03T01:17:00.969Z,35.91
2018-07-03T01:18:00.954Z,36.21
2018-07-03T01:19:00.967Z,35.82
2018-07-03T01:20:00.936Z,35.82
2018-07-03T01:21:00.925Z,35.82
2018-07-03T01:22:00.950Z,36.31
2018-07-03T01:23:00.902Z,35.82
2018-07-03T01:24:00.889Z,35.82
2018-07-03T01:25:00.907Z,35.82
2018-07-03T01:26:00.867Z,35.72
2018-07-03T01:27:00.862Z,35.82
2018-07-03T01:28:00.847Z,35.52
2018-07-03T01:29:00.877Z,36.51
2018-07-03T01:30:00.828Z,35.72
2018-07-03T01:31:00.851Z,35.72
2018-07-03T01:32:00.804Z,35.72
2018-07-03T01:33:00.793Z,36.51
2018-07-03T01:34:00.781Z,36.33
2018-07-03T01:35:00.770Z,36.51
2018-07-03T01:36:00.815Z,36.31
2018-07-03T01:37:00.790Z,36.52
2018-07-03T01:38:00.741Z,36.61
2018-07-03T01:39:00.730Z,36.21
2018-07-03T01:40:00.720Z,36.31
2018-07-03T01:41:00.708Z,35.91
2018-07-03T01:42:00.700Z,35.91
2018-07-03T01:43:00.793Z,35.93
2018-07-03T01:44:00.674Z,36.11
2018-07-03T01:45:00.709Z,36.11
2018-07-03T01:46:00.652Z,36.11
2018-07-03T01:47:00.655Z,36.13
2018-07-03T01:48:00.635Z,35.93
2018-07-03T01:49:00.667Z,36.11
2018-07-03T01:50:00.648Z,35.83
2018-07-03T01:51:00.624Z,36.01
2018-07-03T01:52:00.589Z,35.91
2018-07-03T01:53:00.581Z,35.93
2018-07-03T01:54:00.566Z,36.03
2018-07-03T01:55:00.594Z,36.11
2018-07-03T01:56:00.548Z,35.93
2018-07-03T01:57:00.581Z,36.03
2018-07-03T01:58:00.525Z,36.13
2018-07-03T01:59:00.516Z,36.13
2018-07-03T02:00:00.503Z,35.93
2018-07-03T02:01:00.516Z,36.13
2018-07-03T02:02:00.488Z,36.03
2018-07-03T02:03:00.468Z,35.93
2018-07-03T02:04:05.393Z,36.13
2018-07-03T02:05:00.448Z,36.33
2018-07-03T02:06:00.443Z,36.13
2018-07-03T02:07:00.444Z,36.33
2018-07-03T02:08:00.414Z,36.33
2018-07-03T02:09:00.405Z,36.03
2018-07-03T02:10:00.398Z,36.03
2018-07-03T02:11:00.421Z,35.93
2018-07-03T02:12:00.376Z,36.33
2018-07-03T02:13:00.397Z,36.13
2018-07-03T02:14:00.352Z,36.13
2018-07-03T02:15:00.342Z,36.03
2018-07-03T02:16:00.328Z,36.62
2018-07-03T02:17:00.319Z,36.33
2018-07-03T02:18:00.359Z,36.33
2018-07-03T02:19:00.331Z,36.33
2018-07-03T02:20:00.289Z,36.13
2018-07-03T02:21:00.277Z,36.23
2018-07-03T02:22:00.268Z,36.23
2018-07-03T02:23:00.253Z,36.13
2018-07-03T02:24:00.241Z,36.23
2018-07-03T02:25:00.290Z,36.03
2018-07-03T02:26:00.223Z,36.13
2018-07-03T02:27:00.212Z,36.13
2018-07-03T02:28:00.201Z,36.13
2018-07-03T02:29:00.190Z,36.23
2018-07-03T02:30:00.179Z,36.33
2018-07-03T02:31:00.210Z,36.13
2018-07-03T02:32:00.198Z,35.93
2018-07-03T02:33:00.151Z,35.93
2018-07-03T02:34:00.138Z,36.13
2018-07-03T02:35:00.130Z,36.33
2018-07-03T02:36:00.114Z,36.13
2018-07-03T02:37:00.151Z,36.33
2018-07-03T02:38:00.101Z,35.93
2018-07-03T02:39:00.163Z,36.33
2018-07-03T02:40:00.076Z,36.33
2018-07-03T02:41:00.060Z,35.93
2018-07-03T02:42:00.051Z,36.33
2018-07-03T02:43:00.074Z,36.33
2018-07-03T02:44:00.035Z,36.33
2018-07-03T02:45:00.027Z,36.33
2018-07-03T02:46:00.042Z,36.43
2018-07-03T02:46:59.997Z,36.23
2018-07-03T02:47:59.986Z,36.43
2018-07-03T02:48:59.996Z,36.43
2018-07-03T02:49:59.974Z,36.23
2018-07-03T02:50:59.956Z,36.23
2018-07-03T02:51:59.946Z,36.23
2018-07-03T02:52:59.970Z,36.43
2018-07-03T02:53:59.922Z,36.33
2018-07-03T02:54:59.947Z,36.23
2018-07-03T02:55:59.902Z,36.23
2018-07-03T02:56:59.890Z,36.33
2018-07-03T02:57:59.879Z,36.23
2018-07-03T02:58:59.870Z,36.23
2018-07-03T02:59:59.910Z,36.13
2018-07-03T03:00:59.881Z,36.15
2018-07-03T03:01:59.836Z,36.33
2018-07-03T03:02:59.833Z,36.13
2018-07-03T03:03:59.818Z,36.13
2018-07-03T03:05:04.730Z,36.03
2018-07-03T03:05:59.831Z,36.03
2018-07-03T03:06:59.816Z,36.13
2018-07-03T03:07:59.779Z,36.24
2018-07-03T03:08:59.761Z,36.05
2018-07-03T03:09:59.752Z,36.03
2018-07-03T03:10:59.744Z,36.05
2018-07-03T03:11:59.751Z,36.03
2018-07-03T03:12:59.720Z,36.23
2018-07-03T03:13:59.745Z,36.05
2018-07-03T03:14:59.698Z,36.03
2018-07-03T03:15:59.689Z,36.03
2018-07-03T03:16:59.676Z,36.13
2018-07-03T03:17:59.694Z,36.03
2018-07-03T03:18:59.658Z,36.03
2018-07-03T03:19:59.645Z,36.03
2018-07-03T03:20:59.679Z,36.03
2018-07-03T03:21:59.946Z,36.24
2018-07-03T03:22:59.615Z,36.43
2018-07-03T03:23:59.637Z,36.24
2018-07-03T03:24:59.592Z,36.15
2018-07-03T03:25:59.584Z,36.24
2018-07-03T03:26:59.574Z,36.35
2018-07-03T03:27:59.617Z,36.35
2018-07-03T03:28:59.548Z,36.13
2018-07-03T03:29:59.579Z,36.24
2018-07-03T03:30:59.526Z,36.24
2018-07-03T03:31:59.517Z,36.44
2018-07-03T03:32:59.504Z,36.05
2018-07-03T03:33:59.496Z,36.44
2018-07-03T03:34:59.523Z,36.13
2018-07-03T03:35:59.510Z,36.03
2018-07-03T03:36:59.463Z,36.13
2018-07-03T03:37:59.456Z,36.24
2018-07-03T03:38:59.443Z,36.43
2018-07-03T03:39:59.761Z,36.35
2018-07-03T03:40:59.422Z,36.33
2018-07-03T03:41:59.519Z,36.24
2018-07-03T03:42:59.398Z,35.83
2018-07-03T03:43:59.391Z,36.23
2018-07-03T03:44:59.379Z,36.24
2018-07-03T03:45:59.368Z,36.24
2018-07-03T03:46:59.359Z,36.35
2018-07-03T03:47:59.460Z,35.95
2018-07-03T03:48:59.377Z,36.33
2018-07-03T03:49:59.326Z,36.35
2018-07-03T03:50:59.313Z,36.35
2018-07-03T03:51:59.307Z,36.23
2018-07-03T03:52:59.293Z,36.44
2018-07-03T03:53:59.314Z,36.35
2018-07-03T03:54:59.272Z,36.33
2018-07-03T03:55:59.303Z,36.35
2018-07-03T03:56:59.289Z,36.44
2018-07-03T03:57:59.242Z,36.35
2018-07-03T03:58:59.229Z,36.33
2018-07-03T03:59:59.239Z,36.44
2018-07-03T04:00:59.278Z,36.24
2018-07-03T04:01:59.196Z,36.43
2018-07-03T04:02:59.229Z,36.23
2018-07-03T04:03:59.173Z,35.83
2018-07-03T04:04:59.166Z,36.35
2018-07-03T04:06:04.078Z,36.43
2018-07-03T04:06:59.147Z,36.35
2018-07-03T04:07:59.133Z,36.35
2018-07-03T04:08:59.120Z,36.05
2018-07-03T04:09:59.148Z,36.35
2018-07-03T04:10:59.138Z,36.33
2018-07-03T04:11:59.088Z,36.05
2018-07-03T04:12:59.079Z,36.35
2018-07-03T04:13:59.070Z,36.33
2018-07-03T04:14:59.076Z,36.23
2018-07-03T04:15:59.045Z,36.23
2018-07-03T04:16:59.126Z,36.15
2018-07-03T04:17:59.031Z,36.05
2018-07-03T04:18:59.020Z,36.35
2018-07-03T04:19:59.006Z,36.44
2018-07-03T04:20:59.041Z,36.44
2018-07-03T04:21:58.984Z,36.05
2018-07-03T04:22:59.019Z,36.05
2018-07-03T04:23:59.006Z,36.35
2018-07-03T04:24:58.977Z,36.23
2018-07-03T04:25:58.943Z,36.24
2018-07-03T04:26:58.966Z,36.05
2018-07-03T04:27:58.919Z,36.05
2018-07-03T04:28:58.959Z,36.03
2018-07-03T04:29:58.906Z,36.03
2018-07-03T04:30:59.010Z,36.03
2018-07-03T04:31:58.878Z,36.05
2018-07-03T04:32:58.865Z,36.23
2018-07-03T04:33:58.909Z,36.03
2018-07-03T04:34:58.873Z,36.03
2018-07-03T04:35:58.836Z,36.05
2018-07-03T04:36:58.825Z,36.03
2018-07-03T04:37:58.846Z,36.03
2018-07-03T04:38:58.801Z,36.03
2018-07-03T04:39:58.795Z,36.03
2018-07-03T04:40:58.800Z,36.03
2018-07-03T04:41:58.771Z,36.13
2018-07-03T04:42:58.759Z,36.03
2018-07-03T04:43:58.751Z,36.15
2018-07-03T04:44:58.772Z,36.15
2018-07-03T04:45:58.731Z,36.15
2018-07-03T04:46:58.791Z,36.03
2018-07-03T04:47:58.704Z,36.33
2018-07-03T04:48:58.695Z,36.13
2018-07-03T04:49:58.688Z,36.13
2018-07-03T04:50:58.702Z,36.52
2018-07-03T04:51:58.702Z,36.33
2018-07-03T04:52:58.675Z,36.33
2018-07-03T04:53:58.645Z,36.33
2018-07-03T04:54:58.632Z,36.43
2018-07-03T04:55:58.621Z,36.33
2018-07-03T04:56:58.610Z,36.52
2018-07-03T04:57:58.600Z,36.33
2018-07-03T04:58:58.657Z,36.23
2018-07-03T04:59:58.602Z,36.33
2018-07-03T05:00:58.565Z,36.33
2018-07-03T05:01:58.558Z,36.23
2018-07-03T05:02:58.547Z,35.93
2018-07-03T05:03:58.536Z,36.13
2018-07-03T05:04:58.548Z,36.43
2018-07-03T05:05:58.564Z,36.52
2018-07-03T05:07:03.394Z,35.93
2018-07-03T05:07:58.493Z,36.13
2018-07-03T05:08:58.485Z,36.23
2018-07-03T05:09:58.484Z,36.13
2018-07-03T05:10:58.497Z,35.93
2018-07-03T05:11:58.452Z,36.13
2018-07-03T05:12:58.475Z,36.13
2018-07-03T05:13:58.426Z,35.83
2018-07-03T05:14:58.420Z,36.03
2018-07-03T05:15:58.409Z,35.83
2018-07-03T05:16:58.414Z,36.33
2018-07-03T05:17:58.392Z,35.93
2018-07-03T05:18:58.374Z,36.13
2018-07-03T05:19:58.408Z,36.03
2018-07-03T05:20:58.352Z,36.13
2018-07-03T05:21:58.348Z,35.93
2018-07-03T05:22:58.353Z,36.13
2018-07-03T05:23:58.321Z,35.91
2018-07-03T05:24:58.315Z,36.31
2018-07-03T05:25:58.301Z,35.93
2018-07-03T05:26:58.386Z,35.91
2018-07-03T05:27:58.278Z,35.83
2018-07-03T05:28:58.306Z,36.41
2018-07-03T05:29:58.259Z,35.61
2018-07-03T05:30:58.249Z,35.53
2018-07-03T05:31:58.233Z,35.72
2018-07-03T05:32:58.229Z,35.72
2018-07-03T05:33:58.251Z,35.91
2018-07-03T05:34:58.241Z,35.82
2018-07-03T05:35:58.193Z,35.82
2018-07-03T05:36:58.181Z,35.93
2018-07-03T05:37:58.174Z,35.82
2018-07-03T05:38:58.159Z,35.73
2018-07-03T05:39:58.150Z,35.91
2018-07-03T05:40:58.193Z,35.72
2018-07-03T05:41:58.128Z,36.21
2018-07-03T05:42:58.157Z,36.11
2018-07-03T05:43:58.110Z,36.11
2018-07-03T05:44:58.096Z,36.01
2018-07-03T05:45:58.263Z,36.11
2018-07-03T05:46:58.116Z,35.91
2018-07-03T05:47:58.114Z,35.72
2018-07-03T05:48:58.051Z,35.72
2018-07-03T05:49:58.040Z,36.11
2018-07-03T05:50:58.028Z,35.82
2018-07-03T05:51:58.031Z,36.01
2018-07-03T05:52:58.095Z,35.82
2018-07-03T05:53:57.998Z,35.61
2018-07-03T05:54:58.027Z,35.61
2018-07-03T05:55:57.977Z,35.52
2018-07-03T05:57:12.983Z,35.82
2018-07-03T05:58:13.079Z,36.11
2018-07-03T05:59:12.971Z,35.82
2018-07-03T06:00:12.984Z,34.43
2018-07-03T06:01:12.988Z,33.04
2018-07-03T06:02:12.925Z,32.75
2018-07-03T06:03:13.248Z,32.76
2018-07-03T06:04:13.114Z,34.05
2018-07-03T06:05:12.900Z,33.85
2018-07-03T06:06:12.887Z,34.05
2018-07-03T06:07:12.886Z,34.55
2018-07-03T06:08:18.013Z,34.25
2018-07-03T06:09:13.991Z,34.64
2018-07-03T06:10:12.847Z,34.15
2018-07-03T06:11:12.828Z,34.94
2018-07-03T06:12:12.819Z,34.15
2018-07-03T06:13:12.806Z,34.45
2018-07-03T06:14:12.798Z,34.45
2018-07-03T06:15:12.924Z,34.15
2018-07-03T06:16:12.778Z,34.15
2018-07-03T06:17:12.767Z,34.55
2018-07-03T06:18:12.756Z,34.45
2018-07-03T06:19:12.746Z,34.25
2018-07-03T06:20:12.734Z,34.94
2018-07-03T06:21:12.756Z,34.74
2018-07-03T06:22:12.768Z,34.25
2018-07-03T06:23:12.702Z,34.15
2018-07-03T06:24:12.691Z,34.25
2018-07-03T06:25:12.678Z,33.85
2018-07-03T06:26:12.673Z,33.85
2018-07-03T06:27:12.677Z,34.64
2018-07-03T06:28:12.704Z,34.25
2018-07-03T06:29:12.712Z,34.25
2018-07-03T06:30:12.626Z,33.85
2018-07-03T06:31:12.613Z,34.45
2018-07-03T06:32:12.606Z,33.36
2018-07-03T06:33:12.612Z,34.05
2018-07-03T06:34:12.581Z,33.36
2018-07-03T06:35:12.676Z,33.06
2018-07-03T06:36:12.601Z,32.86
2018-07-03T06:37:12.550Z,32.96
2018-07-03T06:38:12.542Z,33.06
2018-07-03T06:39:12.564Z,33.75
2018-07-03T06:40:12.517Z,33.26
2018-07-03T06:41:12.506Z,33.06
2018-07-03T06:42:12.499Z,33.56
2018-07-03T06:43:12.728Z,33.65
2018-07-03T06:44:12.714Z,32.95
2018-07-03T06:45:12.486Z,32.67
2018-07-03T06:46:12.461Z,32.96
2018-07-03T06:47:12.447Z,32.37
2018-07-03T06:48:12.433Z,32.67
2018-07-03T06:49:12.425Z,32.96
2018-07-03T06:50:12.447Z,32.96
2018-07-03T06:51:12.455Z,32.27
2018-07-03T06:52:12.388Z,32.17
2018-07-03T06:53:12.377Z,32.46
2018-07-03T06:54:12.652Z,32.46
2018-07-03T06:55:12.357Z,32.67
2018-07-03T06:56:12.348Z,33.06
2018-07-03T06:57:12.439Z,32.56
2018-07-03T06:58:12.327Z,32.67
2018-07-03T06:59:12.314Z,32.96
2018-07-03T07:00:12.307Z,32.56
2018-07-03T07:01:12.292Z,32.76
2018-07-03T07:02:12.278Z,32.85
2018-07-03T07:03:12.347Z,31.97
2018-07-03T07:04:12.305Z,32.15
2018-07-03T07:05:13.941Z,32.67
2018-07-03T07:06:12.238Z,31.48
2018-07-03T07:07:12.225Z,32.07
2018-07-03T07:08:12.218Z,31.97
2018-07-03T07:09:17.193Z,32.07
2018-07-03T07:10:13.338Z,31.38
2018-07-03T07:11:12.185Z,31.77
2018-07-03T07:12:12.197Z,31.68
2018-07-03T07:13:12.162Z,31.38
2018-07-03T07:14:12.154Z,31.57
2018-07-03T07:15:12.190Z,31.97
2018-07-03T07:16:12.129Z,31.77
2018-07-03T07:17:12.152Z,31.87
2018-07-03T07:18:12.124Z,32.07
2018-07-03T07:19:12.100Z,32.07
2018-07-03T07:20:12.107Z,32.46
2018-07-03T07:21:12.097Z,31.87
2018-07-03T07:22:12.072Z,31.85
2018-07-03T07:23:12.059Z,31.87
2018-07-03T07:24:12.082Z,32.15
2018-07-03T07:25:12.029Z,32.07
2018-07-03T07:26:12.044Z,32.35
2018-07-03T07:27:12.028Z,32.75
2018-07-03T07:28:12.009Z,32.75
2018-07-03T07:29:12.048Z,32.27
2018-07-03T07:30:11.976Z,31.36
2018-07-03T07:31:12.008Z,31.85
2018-07-03T07:32:11.956Z,31.96
2018-07-03T07:33:11.983Z,31.85
2018-07-03T07:34:24.998Z,31.96
2018-07-03T07:35:33.928Z,32.35
2018-07-03T07:36:11.913Z,31.97
2018-07-03T07:37:11.905Z,31.46
2018-07-03T07:38:11.983Z,31.87
2018-07-03T07:39:11.884Z,31.85
2018-07-03T07:40:11.878Z,31.76
2018-07-03T07:41:11.862Z,31.66
2018-07-03T07:42:11.853Z,31.96
2018-07-03T07:43:11.847Z,31.85
2018-07-03T07:44:11.876Z,32.06
2018-07-03T07:45:11.855Z,31.26
2018-07-03T07:46:11.806Z,31.26
2018-07-03T07:47:11.799Z,31.08
2018-07-03T07:48:11.786Z,31.97
2018-07-03T07:49:11.793Z,31.48
2018-07-03T07:50:11.921Z,31.46
2018-07-03T07:51:12.080Z,31.16
2018-07-03T07:52:11.777Z,31.85
2018-07-03T07:53:11.731Z,31.48
2018-07-03T07:54:11.726Z,31.68
2018-07-03T07:55:11.708Z,31.68
2018-07-03T07:56:11.718Z,31.66
2018-07-03T07:57:11.693Z,31.66
2018-07-03T07:58:11.677Z,31.56
2018-07-03T07:59:11.721Z,31.48
2018-07-03T08:00:11.659Z,31.48
2018-07-03T08:01:11.644Z,31.68
2018-07-03T08:02:11.656Z,31.68
2018-07-03T08:03:11.624Z,31.56
2018-07-03T08:04:11.615Z,31.57
2018-07-03T08:05:11.596Z,31.56
2018-07-03T08:06:11.631Z,31.28
2018-07-03T08:07:11.601Z,31.46
2018-07-03T08:08:11.568Z,31.26
2018-07-03T08:09:11.556Z,31.66
2018-07-03T08:10:16.432Z,31.66
2018-07-03T08:11:11.539Z,31.38
2018-07-03T08:12:11.525Z,31.66
2018-07-03T08:13:11.576Z,31.96
2018-07-03T08:14:11.507Z,31.76
2018-07-03T08:15:11.498Z,31.96
2018-07-03T08:16:11.488Z,31.46
2018-07-03T08:17:11.477Z,31.66
2018-07-03T08:18:11.516Z,31.66
2018-07-03T08:19:11.537Z,31.56
2018-07-03T08:20:11.586Z,31.26
2018-07-03T08:21:11.633Z,31.16
2018-07-03T08:22:11.824Z,31.07
2018-07-03T08:23:11.412Z,31.07
2018-07-03T08:24:11.405Z,30.37
2018-07-03T08:25:11.434Z,30.16
2018-07-03T08:26:11.383Z,30.27
2018-07-03T08:27:11.418Z,30.67
2018-07-03T08:28:11.363Z,30.57
2018-07-03T08:29:11.351Z,30.55
2018-07-03T08:30:11.344Z,30.55
2018-07-03T08:31:11.363Z,30.36
2018-07-03T08:32:11.350Z,30.36
2018-07-03T08:33:11.308Z,30.55
2018-07-03T08:34:11.338Z,30.27
2018-07-03T08:35:11.286Z,30.36
2018-07-03T08:36:11.284Z,30.85
2018-07-03T08:37:11.302Z,30.55
2018-07-03T08:38:11.277Z,30.55
2018-07-03T08:39:11.252Z,30.46
2018-07-03T08:40:11.242Z,30.65
2018-07-03T08:41:11.266Z,30.55
2018-07-03T08:42:11.220Z,30.55
2018-07-03T08:43:11.259Z,30.16
2018-07-03T08:44:11.197Z,30.65
2018-07-03T08:45:11.519Z,30.36
2018-07-03T08:46:11.178Z,30.55
2018-07-03T08:47:11.532Z,30.55
2018-07-03T08:48:11.193Z,30.55
2018-07-03T08:49:11.301Z,30.46
2018-07-03T08:50:11.135Z,30.36
2018-07-03T08:51:11.126Z,30.36
2018-07-03T08:52:11.116Z,30.55
2018-07-03T08:53:11.103Z,30.85
2018-07-03T08:54:11.092Z,30.65
2018-07-03T08:55:11.331Z,30.65
2018-07-03T08:56:11.072Z,30.16
2018-07-03T08:57:11.065Z,30.46
2018-07-03T08:58:11.059Z,30.65
2018-07-03T08:59:11.042Z,30.85
2018-07-03T09:00:11.037Z,30.55
2018-07-03T09:01:11.083Z,30.36
2018-07-03T09:02:11.061Z,30.46
2018-07-03T09:03:11.005Z,30.65
2018-07-03T09:04:10.993Z,30.95
2018-07-03T09:05:10.979Z,30.34
2018-07-03T09:06:10.972Z,30.65
2018-07-03T09:07:10.995Z,30.34
2018-07-03T09:08:10.950Z,30.54
2018-07-03T09:09:10.985Z,30.36
2018-07-03T09:10:10.937Z,30.85
2018-07-03T09:11:15.781Z,30.34
2018-07-03T09:12:10.916Z,29.85
2018-07-03T09:13:10.924Z,29.75
2018-07-03T09:14:10.907Z,29.75
2018-07-03T09:15:10.883Z,29.65
2018-07-03T09:16:10.918Z,30.34
2018-07-03T09:17:10.856Z,30.05
2018-07-03T09:18:10.943Z,29.95
2018-07-03T09:19:10.876Z,29.85
2018-07-03T09:20:10.830Z,29.85
2018-07-03T09:21:10.819Z,29.96
2018-07-03T09:22:10.808Z,29.75
2018-07-03T09:23:10.834Z,29.75
2018-07-03T09:24:10.823Z,29.85
2018-07-03T09:25:10.774Z,29.95
2018-07-03T09:26:10.763Z,29.85
2018-07-03T09:27:10.752Z,29.65
2018-07-03T09:28:10.756Z,30.34
2018-07-03T09:29:10.732Z,29.85
2018-07-03T09:30:10.887Z,30.34
2018-07-03T09:31:10.727Z,30.05
2018-07-03T09:32:10.700Z,30.24
2018-07-03T09:33:10.689Z,30.24
2018-07-03T09:34:10.677Z,29.85
2018-07-03T09:35:10.668Z,30.05
2018-07-03T09:36:10.680Z,30.15
2018-07-03T09:37:10.684Z,30.44
2018-07-03T09:38:10.957Z,30.05
2018-07-03T09:39:10.634Z,29.93
2018-07-03T09:40:10.614Z,30.24
2018-07-03T09:41:10.601Z,30.04
2018-07-03T09:42:10.630Z,30.13
2018-07-03T09:43:10.579Z,29.54
2018-07-03T09:44:10.618Z,30.13
2018-07-03T09:45:10.597Z,29.54
2018-07-03T09:46:10.546Z,30.43
2018-07-03T09:47:10.538Z,29.34
2018-07-03T09:48:10.569Z,29.44
2018-07-03T09:49:10.512Z,29.34
2018-07-03T09:50:10.508Z,29.64
2018-07-03T09:51:10.538Z,29.34
2018-07-03T09:52:10.479Z,29.54
2018-07-03T09:53:10.471Z,29.64
2018-07-03T09:54:10.496Z,29.54
2018-07-03T09:55:10.451Z,29.54
2018-07-03T09:56:10.437Z,29.54
2018-07-03T09:57:10.424Z,29.54
2018-07-03T09:58:10.454Z,29.54
2018-07-03T09:59:10.405Z,29.83
2018-07-03T10:00:10.441Z,30.02
2018-07-03T10:01:10.382Z,29.74
2018-07-03T10:02:10.370Z,29.64
2018-07-03T10:03:10.358Z,29.74
2018-07-03T10:04:10.351Z,29.54
2018-07-03T10:05:10.379Z,30.63
2018-07-03T10:06:10.362Z,29.64
2018-07-03T10:07:10.315Z,29.93
2018-07-03T10:08:10.308Z,29.82
2018-07-03T10:09:10.296Z,30.02
2018-07-03T10:10:10.287Z,29.43
2018-07-03T10:11:10.270Z,28.83
2018-07-03T10:12:15.674Z,29.34
2018-07-03T10:13:11.316Z,29.83
2018-07-03T10:14:10.237Z,29.82
2018-07-03T10:15:10.233Z,30.11
2018-07-03T10:16:10.216Z,29.82
2018-07-03T10:17:10.212Z,29.92
2018-07-03T10:18:10.228Z,29.13
2018-07-03T10:19:10.223Z,29.43
2018-07-03T10:20:10.178Z,29.13
2018-07-03T10:21:10.161Z,28.93
2018-07-03T10:22:10.151Z,29.33
2018-07-03T10:23:10.138Z,28.83
2018-07-03T10:24:10.143Z,29.03
2018-07-03T10:25:10.113Z,29.82
2018-07-03T10:26:10.153Z,28.93
2018-07-03T10:27:10.094Z,29.13
2018-07-03T10:28:10.092Z,29.43
2018-07-03T10:29:10.112Z,29.82
2018-07-03T10:30:10.062Z,29.52
2018-07-03T10:31:10.051Z,29.80
2018-07-03T10:32:10.036Z,30.51
2018-07-03T10:33:10.068Z,30.11
2018-07-03T10:34:10.055Z,30.32
2018-07-03T10:35:10.024Z,30.60
2018-07-03T10:36:10.317Z,30.30
2018-07-03T10:37:09.982Z,30.51
2018-07-03T10:38:10.347Z,31.59
2018-07-03T10:39:09.963Z,31.98
2018-07-03T10:40:10.053Z,31.78
2018-07-03T10:41:10.001Z,30.60
2018-07-03T10:42:10.017Z,30.50
2018-07-03T10:43:09.921Z,31.98
2018-07-03T10:44:09.914Z,31.19
2018-07-03T10:45:09.896Z,31.68
2018-07-03T10:46:09.892Z,32.18
2018-07-03T10:47:10.093Z,34.15
2018-07-03T10:48:09.885Z,33.56
2018-07-03T10:49:09.860Z,32.85
2018-07-03T10:50:09.844Z,31.76
2018-07-03T10:51:09.833Z,31.38
2018-07-03T10:52:09.823Z,30.38
2018-07-03T10:53:09.863Z,30.29
2018-07-03T10:54:09.863Z,31.48
2018-07-03T10:55:09.937Z,30.29
2018-07-03T10:56:09.830Z,31.17
2018-07-03T10:57:09.786Z,30.10
2018-07-03T10:58:09.760Z,30.40
2018-07-03T10:59:09.790Z,30.58
2018-07-03T11:00:09.749Z,30.40
2018-07-03T11:01:09.766Z,30.50
2018-07-03T11:02:09.725Z,30.20
2018-07-03T11:03:09.713Z,30.50
2018-07-03T11:04:09.698Z,30.40
2018-07-03T11:05:09.724Z,29.80
2018-07-03T11:06:09.680Z,29.80
2018-07-03T11:07:09.665Z,30.30
2018-07-03T11:08:09.708Z,30.30
2018-07-03T11:09:09.643Z,30.20
2018-07-03T11:10:09.639Z,29.79
2018-07-03T11:11:09.645Z,29.71
2018-07-03T11:12:09.624Z,30.29
2018-07-03T11:13:09.646Z,30.19
2018-07-03T11:14:14.413Z,29.79
2018-07-03T11:15:09.723Z,30.29
2018-07-03T11:16:09.785Z,30.19
2018-07-03T11:17:09.657Z,29.69
2018-07-03T11:18:09.585Z,29.91
2018-07-03T11:19:09.540Z,30.29
2018-07-03T11:20:09.663Z,29.69
2018-07-03T11:21:09.541Z,30.48
2018-07-03T11:22:09.553Z,29.20
2018-07-03T11:23:09.536Z,30.38
2018-07-03T11:24:09.492Z,30.29
2018-07-03T11:25:09.483Z,29.79
2018-07-03T11:26:09.470Z,30.29
2018-07-03T11:27:09.458Z,29.89
2018-07-03T11:28:09.480Z,29.60
2018-07-03T11:29:09.512Z,30.19
2018-07-03T11:30:09.427Z,29.79
2018-07-03T11:31:09.414Z,30.19
2018-07-03T11:32:09.412Z,29.69
2018-07-03T11:33:09.403Z,29.50
2018-07-03T11:34:09.394Z,30.58
2018-07-03T11:35:09.409Z,29.39
2018-07-03T11:36:09.404Z,30.09
2018-07-03T11:37:09.358Z,30.00
2018-07-03T11:38:09.347Z,30.09
2018-07-03T11:39:09.330Z,29.60
2018-07-03T11:40:09.329Z,29.69
2018-07-03T11:41:09.332Z,30.09
2018-07-03T11:42:09.303Z,30.19
2018-07-03T11:43:09.379Z,30.09
2018-07-03T11:44:09.279Z,29.79
2018-07-03T11:45:09.274Z,29.60
2018-07-03T11:46:09.265Z,29.79
2018-07-03T11:47:09.285Z,29.50
2018-07-03T11:48:09.244Z,29.60
2018-07-03T11:49:09.228Z,29.50
2018-07-03T11:50:09.257Z,29.69
2018-07-03T11:51:09.210Z,29.30
2018-07-03T11:52:09.269Z,29.30
2018-07-03T11:53:09.238Z,29.20
2018-07-03T11:54:09.229Z,29.30
2018-07-03T11:55:09.167Z,28.91
2018-07-03T11:56:09.233Z,29.79
2018-07-03T11:57:09.209Z,29.10
2018-07-03T11:58:09.134Z,29.79
2018-07-03T11:59:09.166Z,29.30
2018-07-03T12:00:09.141Z,29.39
2018-07-03T12:01:09.187Z,29.09
2018-07-03T12:02:09.221Z,29.30
2018-07-03T12:03:09.084Z,29.10
2018-07-03T12:04:09.119Z,29.79
2018-07-03T12:05:09.080Z,29.99
2018-07-03T12:06:09.057Z,30.09
2018-07-03T12:07:09.037Z,29.60
2018-07-03T12:08:09.034Z,28.41
2018-07-03T12:09:09.019Z,29.68
2018-07-03T12:10:09.013Z,29.68
2018-07-03T12:11:09.074Z,29.97
2018-07-03T12:12:08.993Z,29.78
2018-07-03T12:13:08.987Z,29.68
2018-07-03T12:14:08.973Z,29.58
2018-07-03T12:15:09.007Z,29.68
2018-07-03T12:16:13.767Z,29.88
2018-07-03T12:17:08.981Z,29.68
2018-07-03T12:18:08.969Z,29.88
2018-07-03T12:19:08.914Z,29.89
2018-07-03T12:20:08.904Z,29.68
2018-07-03T12:21:08.895Z,30.17
2018-07-03T12:22:08.884Z,29.97
2018-07-03T12:23:08.919Z,29.58
2018-07-03T12:24:08.873Z,29.88
2018-07-03T12:25:08.894Z,29.68
2018-07-03T12:26:08.845Z,29.88
2018-07-03T12:27:08.857Z,29.88
2018-07-03T12:28:08.815Z,29.38
2018-07-03T12:29:08.850Z,29.78
2018-07-03T12:30:08.801Z,29.58
2018-07-03T12:31:08.798Z,30.17
2018-07-03T12:32:08.824Z,29.88
2018-07-03T12:33:08.767Z,29.88
2018-07-03T12:34:08.780Z,29.38
2018-07-03T12:35:08.747Z,29.58
2018-07-03T12:36:08.741Z,29.88
2018-07-03T12:37:08.728Z,29.88
2018-07-03T12:38:08.718Z,29.48
2018-07-03T12:39:08.742Z,29.58
2018-07-03T12:40:08.715Z,29.97
2018-07-03T12:41:08.685Z,29.19
2018-07-03T12:42:08.677Z,29.48
2018-07-03T12:43:08.662Z,29.38
2018-07-03T12:44:08.711Z,29.28
2018-07-03T12:45:08.641Z,29.58
2018-07-03T12:46:08.694Z,29.48
2018-07-03T12:47:08.621Z,29.38
2018-07-03T12:48:08.641Z,29.38
2018-07-03T12:49:08.601Z,29.48
2018-07-03T12:50:08.588Z,29.28
2018-07-03T12:51:08.582Z,29.68
2018-07-03T12:52:08.590Z,29.57